createdAt,value
2023-02-17T00:01:45.455Z,99067.38
2023-02-17T00:04:27.826Z,99073.56
2023-02-17T00:07:16.518Z,99083.84
2023-02-17T00:09:58.729Z,99073.75
2023-02-17T00:12:47.487Z,99085.03
2023-02-17T00:15:29.943Z,99078.06
2023-02-17T00:18:18.498Z,99077.09
2023-02-17T00:21:00.781Z,99082.00
2023-02-17T00:23:49.513Z,99092.47
2023-02-17T00:26:31.735Z,99109.69
2023-02-17T00:29:14.574Z,99110.94
2023-02-17T00:32:03.948Z,99108.88
2023-02-17T00:34:46.517Z,99112.19
2023-02-17T00:37:34.787Z,99120.63
2023-02-17T00:40:17.511Z,99118.53
2023-02-17T00:43:05.853Z,99124.31
2023-02-17T00:45:48.511Z,99115.50
2023-02-17T00:48:44.339Z,99122.47
2023-02-17T00:51:33.530Z,99130.28
2023-02-17T00:54:15.985Z,99122.53
2023-02-17T00:57:05.528Z,99123.31
2023-02-17T00:59:47.737Z,99128.66
2023-02-17T01:02:36.578Z,99132.38
2023-02-17T01:05:18.829Z,99132.56
2023-02-17T01:08:07.534Z,99144.28
2023-02-17T01:10:51.769Z,99146.75
2023-02-17T01:13:40.548Z,99148.00
2023-02-17T01:16:36.700Z,99151.88
2023-02-17T01:19:27.508Z,99146.53
2023-02-17T01:22:09.758Z,99154.75
2023-02-17T01:24:58.562Z,99152.09
2023-02-17T01:27:42.831Z,99161.34
2023-02-17T01:30:31.557Z,99159.03
2023-02-17T01:33:13.842Z,99166.41
2023-02-17T01:36:02.614Z,99163.16
2023-02-17T01:38:47.479Z,99172.56
2023-02-17T01:41:36.517Z,99185.06
2023-02-17T01:44:28.842Z,99177.44
2023-02-17T01:47:21.442Z,99181.53
2023-02-17T01:50:03.893Z,99188.31
2023-02-17T01:52:53.594Z,99190.16
2023-02-17T01:55:36.846Z,99198.59
2023-02-17T01:58:29.444Z,99196.72
2023-02-17T02:01:13.813Z,99201.28
2023-02-17T02:04:02.535Z,99202.06
2023-02-17T02:06:49.859Z,99219.53
2023-02-17T02:09:47.525Z,99216.03
2023-02-17T02:12:40.747Z,99223.66
2023-02-17T02:15:32.550Z,99221.22
2023-02-17T02:18:37.761Z,99231.06
2023-02-17T02:22:10.445Z,99233.09
2023-02-17T02:25:20.763Z,99236.16
2023-02-17T02:28:30.517Z,99241.50
2023-02-17T02:31:51.479Z,99244.75
2023-02-17T02:34:46.717Z,99244.56
2023-02-17T02:37:45.430Z,99247.81
2023-02-17T02:40:34.123Z,99254.16
2023-02-17T02:43:22.433Z,99258.03
2023-02-17T02:46:05.109Z,99262.25
2023-02-17T02:48:55.504Z,99258.94
2023-02-17T02:52:02.766Z,99274.31
2023-02-17T02:55:21.499Z,99270.38
2023-02-17T02:58:16.782Z,99287.66
2023-02-17T03:01:13.546Z,99283.91
2023-02-17T03:04:46.733Z,99281.22
2023-02-17T03:07:38.537Z,99288.94
2023-02-17T03:10:28.862Z,99293.88
2023-02-17T03:13:11.450Z,99296.81
2023-02-17T03:16:01.731Z,99303.81
2023-02-17T03:18:44.501Z,99304.50
2023-02-17T03:21:42.735Z,99300.06
2023-02-17T03:24:25.516Z,99297.31
2023-02-17T03:27:13.807Z,99302.03
2023-02-17T03:29:57.536Z,99300.78
2023-02-17T03:32:48.184Z,99307.84
2023-02-17T03:35:31.757Z,99307.16
2023-02-17T03:38:19.817Z,99308.13
2023-02-17T03:41:02.447Z,99312.97
2023-02-17T03:43:51.570Z,99320.09
2023-02-17T03:46:33.815Z,99315.53
2023-02-17T03:49:28.488Z,99315.84
2023-02-17T03:52:18.478Z,99320.41
2023-02-17T03:55:00.760Z,99318.44
2023-02-17T03:57:49.477Z,99322.19
2023-02-17T04:00:38.433Z,99329.06
2023-02-17T04:03:26.799Z,99331.88
2023-02-17T04:06:09.475Z,99337.59
2023-02-17T04:08:58.518Z,99341.13
2023-02-17T04:11:40.758Z,99343.88
2023-02-17T04:14:29.468Z,99336.91
2023-02-17T04:17:18.457Z,99349.22
2023-02-17T04:20:07.688Z,99353.25
2023-02-17T04:22:50.523Z,99354.00
2023-02-17T04:25:34.801Z,99352.06
2023-02-17T04:28:26.416Z,99353.13
2023-02-17T04:31:08.922Z,99354.63
2023-02-17T04:33:57.468Z,99351.63
2023-02-17T04:36:46.353Z,99349.06
2023-02-17T04:39:35.425Z,99365.13
2023-02-17T04:42:24.505Z,99360.69
2023-02-17T04:45:06.961Z,99362.66
2023-02-17T04:47:55.408Z,99371.00
2023-02-17T04:50:50.354Z,99374.03
2023-02-17T04:53:39.412Z,99368.00
2023-02-17T04:56:21.700Z,99367.88
2023-02-17T04:59:10.478Z,99372.06
2023-02-17T05:01:52.718Z,99369.06
2023-02-17T05:04:41.524Z,99372.00
2023-02-17T05:07:23.698Z,99369.88
2023-02-17T05:10:12.510Z,99380.13
2023-02-17T05:12:54.831Z,99383.53
2023-02-17T05:15:43.496Z,99383.53
2023-02-17T05:18:25.831Z,99383.72
2023-02-17T05:21:14.485Z,99386.69
2023-02-17T05:23:56.956Z,99382.72
2023-02-17T05:26:45.420Z,99384.13
2023-02-17T05:29:27.793Z,99399.81
2023-02-17T05:32:16.469Z,99393.13
2023-02-17T05:34:58.785Z,99408.88
2023-02-17T05:37:47.506Z,99399.31
2023-02-17T05:40:29.803Z,99398.25
2023-02-17T05:43:18.429Z,99401.56
2023-02-17T05:46:00.735Z,99398.16
2023-02-17T05:48:49.586Z,99392.94
2023-02-17T05:51:38.936Z,99394.69
2023-02-17T05:54:21.511Z,99394.13
2023-02-17T05:57:09.712Z,99381.16
2023-02-17T05:59:52.452Z,99377.94
2023-02-17T06:02:42.055Z,99379.63
2023-02-17T06:05:25.546Z,99380.16
2023-02-17T06:08:14.824Z,99376.97
2023-02-17T06:10:57.489Z,99375.84
2023-02-17T06:13:46.916Z,99381.31
2023-02-17T06:16:28.462Z,99378.06
2023-02-17T06:19:10.634Z,99376.16
2023-02-17T06:21:59.718Z,99372.38
2023-02-17T06:24:47.848Z,99364.78
2023-02-17T06:27:30.473Z,99372.66
2023-02-17T06:30:19.785Z,99369.91
2023-02-17T06:33:02.398Z,99364.78
2023-02-17T06:35:55.971Z,99371.28
2023-02-17T06:38:38.751Z,99360.44
2023-02-17T06:41:26.738Z,99367.47
2023-02-17T06:44:09.558Z,99360.72
2023-02-17T06:46:57.809Z,99359.06
2023-02-17T06:49:53.482Z,99356.50
2023-02-17T06:52:35.951Z,99340.19
2023-02-17T06:55:24.519Z,99335.94
2023-02-17T06:58:06.868Z,99338.88
2023-02-17T07:00:55.452Z,99336.22
2023-02-17T07:03:43.747Z,99324.50
2023-02-17T07:06:26.875Z,99322.84
2023-02-17T07:09:15.120Z,99326.47
2023-02-17T07:11:58.525Z,99328.03
2023-02-17T07:14:47.851Z,99330.78
2023-02-17T07:17:29.481Z,99323.91
2023-02-17T07:20:18.819Z,99317.63
2023-02-17T07:23:00.471Z,99313.25
2023-02-17T07:25:42.848Z,99313.97
2023-02-17T07:28:32.582Z,99303.91
2023-02-17T07:31:17.156Z,99300.69
2023-02-17T07:34:06.537Z,99302.22
2023-02-17T07:36:54.769Z,99300.25
2023-02-17T07:39:36.479Z,99302.22
2023-02-17T07:42:24.824Z,99292.75
2023-02-17T07:45:06.496Z,99285.91
2023-02-17T07:47:54.798Z,99283.41
2023-02-17T07:50:43.505Z,99272.50
2023-02-17T07:53:25.743Z,99271.66
2023-02-17T07:56:16.451Z,99273.34
2023-02-17T07:58:58.783Z,99261.50
2023-02-17T08:01:47.480Z,99256.88
2023-02-17T08:04:29.799Z,99248.97
2023-02-17T08:07:18.507Z,99238.50
2023-02-17T08:10:19.266Z,99243.84
2023-02-17T08:13:26.504Z,99246.09
2023-02-17T08:16:08.999Z,99231.97
2023-02-17T08:18:58.507Z,99224.59
2023-02-17T08:21:40.804Z,99235.97
2023-02-17T08:24:29.590Z,99229.25
2023-02-17T08:27:11.754Z,99222.81
2023-02-17T08:30:00.662Z,99221.94
2023-02-17T08:32:42.708Z,99217.31
2023-02-17T08:35:31.404Z,99210.25
2023-02-17T08:38:20.534Z,99212.16
2023-02-17T08:41:02.738Z,99208.09
2023-02-17T08:43:51.397Z,99207.34
2023-02-17T08:46:34.129Z,99208.41
2023-02-17T08:49:23.549Z,99206.72
2023-02-17T08:52:12.778Z,99194.97
2023-02-17T08:54:55.437Z,99186.84
2023-02-17T08:57:37.624Z,99188.94
2023-02-17T09:00:27.568Z,99188.44
2023-02-17T09:03:15.822Z,99183.78
2023-02-17T09:06:01.669Z,99178.06
2023-02-17T09:08:51.810Z,99174.94
2023-02-17T09:11:33.520Z,99174.69
2023-02-17T09:14:25.035Z,99153.81
2023-02-17T09:17:07.482Z,99157.28
2023-02-17T09:19:49.832Z,99152.16
2023-02-17T09:22:38.466Z,99157.69
2023-02-17T09:25:20.871Z,99149.06
2023-02-17T09:28:09.469Z,99139.25
2023-02-17T09:30:58.532Z,99144.94
2023-02-17T09:33:41.058Z,99134.06
2023-02-17T09:36:34.485Z,99131.94
2023-02-17T09:39:17.981Z,99132.31
2023-02-17T09:42:06.413Z,99123.63
2023-02-17T09:44:53.473Z,99122.53
2023-02-17T09:48:02.417Z,99114.16
2023-02-17T09:51:19.582Z,99114.78
2023-02-17T09:54:19.042Z,99115.38
2023-02-17T09:57:02.576Z,99101.88
2023-02-17T10:00:03.820Z,99102.41
2023-02-17T10:03:03.465Z,99096.50
2023-02-17T10:06:02.948Z,99096.50
2023-02-17T10:08:55.481Z,99096.50
2023-02-17T10:11:48.786Z,99100.81
2023-02-17T10:14:37.490Z,99096.22
2023-02-17T10:17:52.783Z,99093.31
2023-02-17T10:20:46.453Z,99084.44
2023-02-17T10:23:36.676Z,99080.13
2023-02-17T10:26:43.141Z,99087.44
2023-02-17T10:29:55.532Z,99081.72
2023-02-17T10:32:39.836Z,99084.72
2023-02-17T10:35:39.437Z,99080.94
2023-02-17T10:38:39.895Z,99089.03
2023-02-17T10:41:35.482Z,99082.53
2023-02-17T10:44:24.806Z,99093.97
2023-02-17T10:47:13.451Z,99091.84
2023-02-17T10:50:11.272Z,99081.56
2023-02-17T10:53:08.400Z,99084.28
2023-02-17T10:56:22.804Z,99079.44
2023-02-17T10:59:16.449Z,99080.53
2023-02-17T11:02:28.780Z,99078.69
2023-02-17T11:05:11.388Z,99076.50
2023-02-17T11:08:15.802Z,99078.94
2023-02-17T11:11:11.494Z,99082.78
2023-02-17T11:14:34.859Z,99081.97
2023-02-17T11:17:38.498Z,99094.41
2023-02-17T11:20:29.775Z,99085.47
2023-02-17T11:23:32.561Z,99087.06
2023-02-17T11:26:30.698Z,99080.56
2023-02-17T11:29:19.552Z,99080.03
2023-02-17T11:32:21.097Z,99075.44
2023-02-17T11:35:08.573Z,99075.16
2023-02-17T11:37:56.713Z,99070.25
2023-02-17T11:40:41.467Z,99077.53
2023-02-17T11:43:29.820Z,99077.53
2023-02-17T11:46:27.484Z,99085.06
2023-02-17T11:49:46.714Z,99083.13
2023-02-17T11:52:35.392Z,99073.41
2023-02-17T11:55:46.751Z,99069.34
2023-02-17T11:58:35.447Z,99075.00
2023-02-17T12:01:48.786Z,99063.66
2023-02-17T12:04:53.562Z,99070.91
2023-02-17T12:07:47.771Z,99075.81
2023-02-17T12:11:10.808Z,99074.97
2023-02-17T12:14:18.770Z,99069.28
2023-02-17T12:17:21.439Z,99066.53
2023-02-17T12:20:13.793Z,99065.72
2023-02-17T12:23:23.504Z,99066.75
2023-02-17T12:26:22.693Z,99074.81
2023-02-17T12:29:16.418Z,99076.63
2023-02-17T12:32:05.287Z,99073.84
2023-02-17T12:35:06.574Z,99072.47
2023-02-17T12:38:21.285Z,99066.50
2023-02-17T12:41:20.419Z,99068.53
2023-02-17T12:44:10.970Z,99077.59
2023-02-17T12:46:59.420Z,99080.19
2023-02-17T12:50:18.480Z,99088.13
2023-02-17T12:53:13.770Z,99092.41
2023-02-17T12:56:03.564Z,99096.88
2023-02-17T12:58:51.690Z,99090.63
2023-02-17T13:01:39.517Z,99087.81
2023-02-17T13:04:31.105Z,99089.84
2023-02-17T13:08:07.461Z,99077.91
2023-02-17T13:11:07.873Z,99089.13
2023-02-17T13:13:51.520Z,99094.13
2023-02-17T13:16:53.843Z,99094.28
2023-02-17T13:19:41.495Z,99104.94
2023-02-17T13:22:30.879Z,99110.25
2023-02-17T13:25:13.504Z,99102.59
2023-02-17T13:28:02.942Z,99100.50
2023-02-17T13:30:50.626Z,99096.09
2023-02-17T13:33:39.813Z,99098.53
2023-02-17T13:36:44.435Z,99100.84
2023-02-17T13:39:35.821Z,99099.13
2023-02-17T13:42:47.495Z,99112.78
2023-02-17T13:45:35.924Z,99112.94
2023-02-17T13:48:32.447Z,99105.28
2023-02-17T13:51:54.310Z,99106.34
2023-02-17T13:54:43.488Z,99104.09
2023-02-17T13:57:38.872Z,99104.09
2023-02-17T14:00:27.381Z,99113.13
2023-02-17T14:03:53.962Z,99111.50
2023-02-17T14:06:45.454Z,99113.59
2023-02-17T14:09:43.437Z,99128.50
2023-02-17T14:12:33.411Z,99121.66
2023-02-17T14:15:28.052Z,99113.50
2023-02-17T14:18:22.478Z,99118.66
2023-02-17T14:21:16.799Z,99125.00
2023-02-17T14:24:06.516Z,99135.16
2023-02-17T14:26:56.930Z,99142.09
2023-02-17T14:29:57.839Z,99138.25
2023-02-17T14:32:45.920Z,99140.13
2023-02-17T14:35:35.375Z,99145.91
2023-02-17T14:38:33.176Z,99137.59
2023-02-17T14:41:22.468Z,99141.00
2023-02-17T14:44:04.838Z,99148.47
2023-02-17T14:46:53.547Z,99154.34
2023-02-17T14:49:35.808Z,99153.09
2023-02-17T14:52:39.426Z,99162.53
2023-02-17T14:55:30.750Z,99155.78
2023-02-17T14:58:13.412Z,99158.28
2023-02-17T15:01:01.832Z,99163.09
2023-02-17T15:03:44.514Z,99168.47
2023-02-17T15:06:45.724Z,99164.63
2023-02-17T15:09:34.557Z,99174.56
2023-02-17T15:12:28.112Z,99172.31
2023-02-17T15:15:11.560Z,99173.03
2023-02-17T15:17:59.730Z,99174.53
2023-02-17T15:20:42.458Z,99177.72
2023-02-17T15:23:31.698Z,99181.59
2023-02-17T15:26:17.444Z,99176.44
2023-02-17T15:29:06.709Z,99186.34
2023-02-17T15:31:49.584Z,99189.53
2023-02-17T15:34:42.745Z,99179.28
2023-02-17T15:37:25.512Z,99188.38
2023-02-17T15:40:08.229Z,99185.56
2023-02-17T15:42:58.532Z,99181.72
2023-02-17T15:45:40.691Z,99186.50
2023-02-17T15:48:42.388Z,99181.72
2023-02-17T15:51:38.532Z,99182.44
2023-02-17T15:54:21.253Z,99179.97
2023-02-17T15:57:11.423Z,99184.19
2023-02-17T16:00:01.412Z,99183.63
2023-02-17T16:02:44.445Z,99176.97
2023-02-17T16:05:35.596Z,99179.78
2023-02-17T16:08:25.453Z,99186.66
2023-02-17T16:11:07.677Z,99187.34
2023-02-17T16:14:00.454Z,99184.09
2023-02-17T16:16:43.267Z,99199.50
2023-02-17T16:19:32.370Z,99203.44
2023-02-17T16:22:21.981Z,99199.94
2023-02-17T16:25:04.469Z,99198.78
2023-02-17T16:27:55.700Z,99205.31
2023-02-17T16:30:43.457Z,99198.22
2023-02-17T16:33:25.681Z,99200.88
2023-02-17T16:36:14.449Z,99211.84
2023-02-17T16:39:02.731Z,99200.50
2023-02-17T16:41:44.439Z,99209.03
2023-02-17T16:44:26.688Z,99200.16
2023-02-17T16:47:15.493Z,99205.41
2023-02-17T16:50:04.829Z,99202.16
2023-02-17T16:53:00.389Z,99197.44
2023-02-17T16:55:50.391Z,99209.22
2023-02-17T16:58:41.439Z,99210.63
2023-02-17T17:01:24.403Z,99207.56
2023-02-17T17:04:15.394Z,99210.94
2023-02-17T17:07:11.470Z,99221.09
2023-02-17T17:10:15.440Z,99201.38
2023-02-17T17:12:59.441Z,99195.06
2023-02-17T17:15:45.060Z,99204.97
2023-02-17T17:18:36.447Z,99200.91
2023-02-17T17:21:27.801Z,99211.03
2023-02-17T17:24:10.542Z,99205.91
2023-02-17T17:26:59.841Z,99210.53
2023-02-17T17:29:42.418Z,99208.31
2023-02-17T17:32:24.768Z,99202.94
2023-02-17T17:35:13.491Z,99209.00
2023-02-17T17:38:03.652Z,99198.59
2023-02-17T17:41:00.424Z,99199.22
2023-02-17T17:43:50.913Z,99201.75
2023-02-17T17:46:39.476Z,99207.78
2023-02-17T17:49:27.742Z,99198.13
2023-02-17T17:52:16.448Z,99190.22
2023-02-17T17:54:58.787Z,99189.25
2023-02-17T17:57:49.425Z,99190.75
2023-02-17T18:00:31.817Z,99188.75
2023-02-17T18:03:21.416Z,99191.06
2023-02-17T18:06:03.864Z,99193.16
2023-02-17T18:08:57.274Z,99191.97
2023-02-17T18:11:41.819Z,99185.66
2023-02-17T18:14:31.432Z,99185.91
2023-02-17T18:17:15.991Z,99187.97
2023-02-17T18:20:04.556Z,99186.72
2023-02-17T18:22:47.795Z,99181.78
2023-02-17T18:25:36.549Z,99177.06
2023-02-17T18:28:18.938Z,99177.75
2023-02-17T18:31:07.564Z,99180.22
2023-02-17T18:33:50.942Z,99178.66
2023-02-17T18:36:39.509Z,99178.22
2023-02-17T18:39:21.934Z,99175.38
2023-02-17T18:42:10.565Z,99170.13
2023-02-17T18:44:54.851Z,99170.81
2023-02-17T18:47:43.731Z,99171.84
2023-02-17T18:50:34.017Z,99167.88
2023-02-17T18:53:23.403Z,99168.34
2023-02-17T18:56:06.053Z,99169.00
2023-02-17T18:58:57.567Z,99174.00
2023-02-17T19:01:44.342Z,99176.06
2023-02-17T19:04:35.473Z,99169.09
2023-02-17T19:07:17.845Z,99175.25
2023-02-17T19:10:06.791Z,99167.69
2023-02-17T19:12:48.914Z,99163.00
2023-02-17T19:15:37.546Z,99163.00
2023-02-17T19:18:19.775Z,99159.72
2023-02-17T19:21:08.528Z,99157.88
2023-02-17T19:23:52.267Z,99150.28
2023-02-17T19:26:44.452Z,99151.31
2023-02-17T19:29:26.837Z,99140.84
2023-02-17T19:32:15.518Z,99139.66
2023-02-17T19:34:57.875Z,99143.38
2023-02-17T19:37:46.600Z,99141.34
2023-02-17T19:40:28.844Z,99139.72
2023-02-17T19:43:17.449Z,99141.00
2023-02-17T19:46:00.021Z,99144.69
2023-02-17T19:48:49.419Z,99137.13
2023-02-17T19:51:38.252Z,99130.97
2023-02-17T19:54:34.416Z,99144.75
2023-02-17T19:57:24.132Z,99132.88
2023-02-17T20:00:06.466Z,99134.34
2023-02-17T20:02:55.920Z,99140.78
2023-02-17T20:05:39.471Z,99144.91
2023-02-17T20:08:28.870Z,99139.19
2023-02-17T20:11:18.502Z,99135.69
2023-02-17T20:14:12.038Z,99133.47
2023-02-17T20:16:56.512Z,99131.22
2023-02-17T20:19:46.862Z,99122.84
2023-02-17T20:22:29.421Z,99124.06
2023-02-17T20:25:18.848Z,99128.81
2023-02-17T20:28:01.469Z,99124.25
2023-02-17T20:30:49.774Z,99124.72
2023-02-17T20:33:32.474Z,99126.81
2023-02-17T20:36:23.342Z,99133.19
2023-02-17T20:39:05.383Z,99129.47
2023-02-17T20:41:54.727Z,99125.81
2023-02-17T20:44:37.461Z,99127.06
2023-02-17T20:47:26.826Z,99119.84
2023-02-17T20:50:08.423Z,99123.97
2023-02-17T20:52:57.688Z,99121.72
2023-02-17T20:55:40.415Z,99119.47
2023-02-17T20:58:28.627Z,99129.19
2023-02-17T21:01:11.433Z,99116.66
2023-02-17T21:04:00.753Z,99113.56
2023-02-17T21:06:50.440Z,99112.78
2023-02-17T21:09:38.669Z,99105.59
2023-02-17T21:12:21.398Z,99102.75
2023-02-17T21:15:09.688Z,99107.06
2023-02-17T21:17:53.690Z,99101.34
2023-02-17T21:20:42.698Z,99096.81
2023-02-17T21:23:25.407Z,99101.75
2023-02-17T21:26:12.247Z,99092.94
2023-02-17T21:29:02.463Z,99090.84
2023-02-17T21:31:44.674Z,99091.31
2023-02-17T21:34:34.344Z,99083.94
2023-02-17T21:37:16.624Z,99093.38
2023-02-17T21:40:05.421Z,99076.13
2023-02-17T21:43:13.273Z,99077.16
2023-02-17T21:45:58.473Z,99074.28
2023-02-17T21:48:47.341Z,99065.06
2023-02-17T21:51:29.848Z,99054.19
2023-02-17T21:54:19.411Z,99055.41
2023-02-17T21:57:04.037Z,99056.69
2023-02-17T21:59:53.475Z,99047.22
2023-02-17T22:02:35.605Z,99052.19
2023-02-17T22:05:24.418Z,99043.81
2023-02-17T22:08:13.393Z,99041.34
2023-02-17T22:11:02.660Z,99036.44
2023-02-17T22:13:44.455Z,99031.94
2023-02-17T22:16:33.693Z,99035.84
2023-02-17T22:19:18.415Z,99027.81
2023-02-17T22:22:07.395Z,99037.72
2023-02-17T22:24:49.629Z,99029.72
2023-02-17T22:27:38.444Z,99028.88
2023-02-17T22:30:21.814Z,99029.72
2023-02-17T22:33:10.400Z,99027.81
2023-02-17T22:35:52.637Z,99029.72
2023-02-17T22:38:41.398Z,99025.03
2023-02-17T22:41:27.040Z,99021.91
2023-02-17T22:44:16.382Z,99018.19
2023-02-17T22:46:58.674Z,99022.34
2023-02-17T22:49:47.387Z,99022.34
2023-02-17T22:52:29.780Z,99030.59
2023-02-17T22:55:18.328Z,99015.03
2023-02-17T22:58:01.154Z,99016.06
2023-02-17T23:00:50.494Z,99012.56
2023-02-17T23:03:32.673Z,99012.19
2023-02-17T23:06:28.419Z,99016.72
2023-02-17T23:09:10.678Z,99010.78
2023-02-17T23:12:02.338Z,99007.28
2023-02-17T23:14:47.711Z,99000.75
2023-02-17T23:17:56.526Z,98993.41
2023-02-17T23:20:38.653Z,98990.56
2023-02-17T23:23:29.335Z,98997.34
2023-02-17T23:26:12.697Z,98982.34
2023-02-17T23:29:01.338Z,98982.13
2023-02-17T23:31:45.730Z,98986.03
2023-02-17T23:34:34.422Z,98998.44
2023-02-17T23:37:16.834Z,98993.88
2023-02-17T23:40:05.380Z,99008.09
2023-02-17T23:42:47.769Z,99005.44
2023-02-17T23:45:36.420Z,99001.75
2023-02-17T23:48:19.601Z,99003.22
2023-02-17T23:51:11.480Z,99002.84
2023-02-17T23:54:00.722Z,99004.91
2023-02-17T23:56:44.357Z,99004.50
2023-02-17T23:59:32.640Z,99002.47
